createdAt,value
2016-07-29T00:00:09.561Z,17.23
2016-07-29T00:01:09.471Z,17.2
2016-07-29T00:02:07.971Z,17.15
2016-07-29T00:03:09.514Z,17.11
2016-07-29T00:04:08.983Z,17.3
2016-07-29T00:05:07.971Z,17.29
2016-07-29T00:06:08.165Z,17.14
2016-07-29T00:07:09.326Z,17.11
2016-07-29T00:08:08.156Z,17.15
2016-07-29T00:09:07.830Z,17.11
2016-07-29T00:10:09.427Z,17.06
2016-07-29T00:11:07.852Z,17.12
2016-07-29T00:12:08.241Z,17.14
2016-07-29T00:13:08.196Z,17.12
2016-07-29T00:14:09.433Z,17.14
2016-07-29T00:15:08.249Z,17.2
2016-07-29T00:16:09.246Z,17.14
2016-07-29T00:17:09.712Z,17.22
2016-07-29T00:18:08.927Z,17.3
2016-07-29T00:19:08.451Z,17.19
2016-07-29T00:20:08.131Z,17.15
2016-07-29T00:21:08.870Z,17.22
2016-07-29T00:22:08.771Z,17.09
2016-07-29T00:23:09.060Z,17.11
2016-07-29T00:24:09.652Z,17.12
2016-07-29T00:25:08.650Z,17.14
2016-07-29T00:26:09.334Z,17.11
2016-07-29T00:27:08.191Z,17.08
2016-07-29T00:28:09.626Z,17.08
2016-07-29T00:29:08.099Z,16.94
2016-07-29T00:30:08.718Z,17.01
2016-07-29T00:31:08.429Z,17.09
2016-07-29T00:33:08.793Z,16.94
2016-07-29T00:34:08.368Z,16.94
2016-07-29T00:35:09.767Z,16.91
2016-07-29T00:36:09.762Z,16.87
2016-07-29T00:37:08.783Z,16.97
2016-07-29T00:38:07.942Z,16.94
2016-07-29T00:39:08.222Z,16.91
2016-07-29T00:40:09.217Z,16.96
2016-07-29T00:41:09.875Z,16.87
2016-07-29T00:42:09.250Z,16.87
2016-07-29T00:43:08.208Z,16.89
2016-07-29T00:44:09.543Z,16.84
2016-07-29T00:45:09.927Z,17.01
2016-07-29T00:46:09.497Z,16.94
2016-07-29T00:47:08.625Z,16.93
2016-07-29T00:48:09.805Z,16.99
2016-07-29T00:49:08.734Z,16.99
2016-07-29T00:50:09.226Z,16.96
2016-07-29T00:51:09.207Z,16.91
2016-07-29T00:52:09.683Z,16.87
2016-07-29T00:53:10.780Z,16.86
2016-07-29T00:54:08.771Z,16.83
2016-07-29T00:55:10.666Z,16.65
2016-07-29T00:56:08.960Z,16.47
2016-07-29T00:57:10.283Z,16.5
2016-07-29T00:58:09.780Z,16.57
2016-07-29T00:59:10.105Z,16.54
2016-07-29T01:00:09.222Z,16.54
2016-07-29T01:01:10.200Z,16.58
2016-07-29T01:02:09.286Z,16.69
2016-07-29T01:03:09.750Z,16.69
2016-07-29T01:04:09.956Z,16.75
2016-07-29T01:05:09.563Z,16.83
2016-07-29T01:06:09.060Z,16.87
2016-07-29T01:07:09.607Z,16.81
2016-07-29T01:08:09.236Z,16.72
2016-07-29T01:09:09.028Z,16.74
2016-07-29T01:10:11.123Z,16.78
2016-07-29T01:11:09.427Z,16.79
2016-07-29T01:12:09.160Z,16.79
2016-07-29T01:13:09.666Z,16.79
2016-07-29T01:14:10.974Z,16.76
2016-07-29T01:15:10.026Z,16.78
2016-07-29T01:16:10.939Z,16.81
2016-07-29T01:17:10.930Z,16.76
2016-07-29T01:18:10.938Z,16.69
2016-07-29T01:19:10.861Z,16.68
2016-07-29T01:20:10.344Z,16.81
2016-07-29T01:21:09.560Z,16.51
2016-07-29T01:22:09.896Z,16.43
2016-07-29T01:23:10.890Z,16.53
2016-07-29T01:24:09.733Z,16.46
2016-07-29T01:25:10.387Z,16.68
2016-07-29T01:26:10.660Z,16.56
2016-07-29T01:27:09.503Z,16.6
2016-07-29T01:28:12.088Z,16.66
2016-07-29T01:29:11.703Z,16.58
2016-07-29T01:30:09.815Z,16.6
2016-07-29T01:31:10.013Z,16.56
2016-07-29T01:32:09.504Z,16.49
2016-07-29T01:33:10.857Z,16.5
2016-07-29T01:34:10.185Z,16.43
2016-07-29T01:35:11.946Z,16.47
2016-07-29T01:36:09.729Z,16.39
2016-07-29T01:37:09.768Z,16.43
2016-07-29T01:38:10.721Z,16.49
2016-07-29T01:39:09.769Z,16.35
2016-07-29T01:40:09.729Z,16.15
2016-07-29T01:41:09.915Z,16.21
2016-07-29T01:42:10.465Z,16.26
2016-07-29T01:43:10.376Z,16.17
2016-07-29T01:44:11.888Z,16.29
2016-07-29T01:45:11.862Z,16.38
2016-07-29T01:46:10.510Z,16.41
2016-07-29T01:47:09.934Z,16.36
2016-07-29T01:48:10.208Z,16.23
2016-07-29T01:49:11.303Z,16.17
2016-07-29T01:50:10.321Z,16.16
2016-07-29T01:51:10.554Z,16.23
2016-07-29T01:52:10.377Z,16.33
2016-07-29T01:53:12.161Z,16.36
2016-07-29T01:54:11.175Z,16.33
2016-07-29T01:55:12.060Z,16.41
2016-07-29T01:56:11.395Z,16.38
2016-07-29T01:57:10.784Z,16.49
2016-07-29T01:58:10.695Z,16.35
2016-07-29T01:59:10.392Z,16.39
2016-07-29T02:00:10.956Z,16.35
2016-07-29T02:01:11.000Z,16.38
2016-07-29T02:02:11.840Z,16.21
2016-07-29T02:03:10.596Z,16.28
2016-07-29T02:04:10.790Z,16.2
2016-07-29T02:05:11.526Z,16.39
2016-07-29T02:06:11.952Z,16.33
2016-07-29T02:07:10.957Z,16.36
2016-07-29T02:08:10.697Z,16.38
2016-07-29T02:09:10.493Z,16.33
2016-07-29T02:10:10.681Z,16.33
2016-07-29T02:11:12.798Z,16.38
2016-07-29T02:12:10.572Z,16.35
2016-07-29T02:13:12.553Z,16.36
2016-07-29T02:14:11.775Z,16.39
2016-07-29T02:15:10.619Z,16.26
2016-07-29T02:16:11.511Z,16.2
2016-07-29T02:17:11.443Z,16.15
2016-07-29T02:18:11.512Z,16.13
2016-07-29T02:19:12.033Z,16.08
2016-07-29T02:20:12.371Z,16.01
2016-07-29T02:21:13.031Z,16.02
2016-07-29T02:22:13.115Z,15.97
2016-07-29T02:23:11.115Z,15.98
2016-07-29T02:24:13.774Z,16.08
2016-07-29T02:25:12.403Z,16.08
2016-07-29T02:26:11.589Z,15.97
2016-07-29T02:27:11.336Z,16
2016-07-29T02:28:12.549Z,15.94
2016-07-29T02:29:11.422Z,15.91
2016-07-29T02:30:11.254Z,15.91
2016-07-29T02:31:11.105Z,15.95
2016-07-29T02:32:12.206Z,15.95
2016-07-29T02:33:11.614Z,15.72
2016-07-29T02:34:11.663Z,15.59
2016-07-29T02:35:12.463Z,15.64
2016-07-29T02:36:11.794Z,15.76
2016-07-29T02:37:11.721Z,15.68
2016-07-29T02:38:11.925Z,15.75
2016-07-29T02:39:11.226Z,15.84
2016-07-29T02:40:13.314Z,15.88
2016-07-29T02:41:12.119Z,15.79
2016-07-29T02:42:11.349Z,15.73
2016-07-29T02:43:12.144Z,15.76
2016-07-29T02:44:11.667Z,15.76
2016-07-29T02:45:11.562Z,15.72
2016-07-29T02:46:11.648Z,15.72
2016-07-29T02:47:12.253Z,15.73
2016-07-29T02:48:13.058Z,15.83
2016-07-29T02:49:13.465Z,15.82
2016-07-29T02:50:13.349Z,15.51
2016-07-29T02:51:13.943Z,15.52
2016-07-29T02:52:13.252Z,15.58
2016-07-29T02:53:12.082Z,15.65
2016-07-29T02:54:13.214Z,15.62
2016-07-29T02:55:11.809Z,15.51
2016-07-29T02:56:13.205Z,15.54
2016-07-29T02:57:13.392Z,15.58
2016-07-29T02:58:13.755Z,15.64
2016-07-29T02:59:12.199Z,15.64
2016-07-29T03:00:12.932Z,15.57
2016-07-29T03:01:13.179Z,15.52
2016-07-29T03:02:12.858Z,15.59
2016-07-29T03:03:12.573Z,15.55
2016-07-29T03:04:12.362Z,15.52
2016-07-29T03:05:12.944Z,15.52
2016-07-29T03:06:13.299Z,15.54
2016-07-29T03:07:13.663Z,15.49
2016-07-29T03:08:14.704Z,15.52
2016-07-29T03:09:12.121Z,15.54
2016-07-29T03:10:12.259Z,15.43
2016-07-29T03:11:13.672Z,15.47
2016-07-29T03:12:12.185Z,15.49
2016-07-29T03:13:12.947Z,15.4
2016-07-29T03:14:13.457Z,15.39
2016-07-29T03:15:12.220Z,15.4
2016-07-29T03:16:13.019Z,15.43
2016-07-29T03:17:12.270Z,15.37
2016-07-29T03:18:13.356Z,15.4
2016-07-29T03:19:12.464Z,15.52
2016-07-29T03:20:13.263Z,15.42
2016-07-29T03:21:14.161Z,15.52
2016-07-29T03:22:13.361Z,15.49
2016-07-29T03:23:13.128Z,15.43
2016-07-29T03:24:13.369Z,15.46
2016-07-29T03:25:13.164Z,15.4
2016-07-29T03:26:13.143Z,15.49
2016-07-29T03:27:13.535Z,15.43
2016-07-29T03:28:14.273Z,15.52
2016-07-29T03:29:13.121Z,15.51
2016-07-29T03:30:14.243Z,15.67
2016-07-29T03:31:13.124Z,15.59
2016-07-29T03:32:13.640Z,15.65
2016-07-29T03:33:13.597Z,15.55
2016-07-29T03:34:13.458Z,15.7
2016-07-29T03:35:13.301Z,15.59
2016-07-29T03:36:14.698Z,15.58
2016-07-29T03:37:13.148Z,15.59
2016-07-29T03:38:14.034Z,15.73
2016-07-29T03:39:14.806Z,15.64
2016-07-29T03:40:14.687Z,15.8
2016-07-29T03:41:13.384Z,15.64
2016-07-29T03:42:13.423Z,15.84
2016-07-29T03:43:14.605Z,15.82
2016-07-29T03:44:14.169Z,15.86
2016-07-29T03:45:13.475Z,15.8
2016-07-29T03:46:14.094Z,15.95
2016-07-29T03:47:13.351Z,15.97
2016-07-29T03:48:13.211Z,16
2016-07-29T03:49:14.044Z,15.92
2016-07-29T03:50:13.262Z,15.8
2016-07-29T03:51:14.521Z,15.94
2016-07-29T03:52:13.443Z,15.88
2016-07-29T03:53:14.681Z,15.9
2016-07-29T03:54:13.941Z,16.02
2016-07-29T03:55:13.646Z,16.02
2016-07-29T03:56:14.328Z,16.12
2016-07-29T03:57:14.337Z,15.98
2016-07-29T03:58:14.711Z,15.94
2016-07-29T03:59:13.612Z,15.75
2016-07-29T04:00:13.547Z,15.65
2016-07-29T04:01:13.622Z,15.68
2016-07-29T04:02:13.381Z,15.7
2016-07-29T04:03:13.752Z,15.8
2016-07-29T04:04:13.882Z,15.98
2016-07-29T04:05:13.948Z,16.04
2016-07-29T04:06:13.519Z,16.01
2016-07-29T04:07:14.493Z,16.05
2016-07-29T04:08:14.747Z,16.12
2016-07-29T04:09:15.287Z,16.17
2016-07-29T04:10:14.658Z,16.21
2016-07-29T04:11:13.852Z,16.26
2016-07-29T04:12:14.694Z,16.28
2016-07-29T04:13:15.465Z,16.33
2016-07-29T04:14:13.955Z,16.36
2016-07-29T04:15:14.421Z,16.35
2016-07-29T04:16:15.196Z,16.33
2016-07-29T04:17:14.029Z,16.42
2016-07-29T04:18:13.994Z,16.29
2016-07-29T04:19:14.612Z,16.39
2016-07-29T04:20:14.902Z,16.36
2016-07-29T04:21:13.766Z,16.38
2016-07-29T04:22:15.219Z,16.36
2016-07-29T04:23:14.250Z,16.33
2016-07-29T04:24:13.801Z,16.39
2016-07-29T04:25:14.002Z,16.29
2016-07-29T04:26:14.949Z,16.23
2016-07-29T04:27:14.511Z,16.36
2016-07-29T04:28:14.527Z,16.39
2016-07-29T04:29:15.097Z,16.36
2016-07-29T04:30:14.214Z,16.35
2016-07-29T04:31:14.820Z,16.41
2016-07-29T04:32:14.124Z,16.38
2016-07-29T04:33:15.256Z,16.16
2016-07-29T04:34:15.421Z,16.05
2016-07-29T04:35:14.332Z,16.23
2016-07-29T04:36:15.646Z,16.24
2016-07-29T04:37:14.515Z,16.41
2016-07-29T04:38:14.380Z,16.16
2016-07-29T04:39:14.529Z,16.28
2016-07-29T04:40:14.922Z,16.33
2016-07-29T04:41:14.865Z,16.29
2016-07-29T04:42:14.437Z,16.36
2016-07-29T04:43:16.300Z,16.33
2016-07-29T04:44:15.411Z,16.21
2016-07-29T04:45:14.489Z,16.12
2016-07-29T04:46:16.105Z,16.13
2016-07-29T04:47:14.671Z,16.09
2016-07-29T04:48:14.506Z,16.05
2016-07-29T04:49:15.874Z,16.09
2016-07-29T04:50:16.468Z,16.13
2016-07-29T04:51:15.504Z,16.09
2016-07-29T04:52:14.318Z,16.2
2016-07-29T04:53:16.685Z,16.12
2016-07-29T04:54:14.651Z,16.23
2016-07-29T04:55:14.879Z,16.21
2016-07-29T04:56:14.847Z,16.23
2016-07-29T04:57:16.326Z,16.2
2016-07-29T04:58:15.481Z,16.13
2016-07-29T04:59:15.354Z,16.12
2016-07-29T05:00:16.667Z,16.16
2016-07-29T05:01:15.330Z,16.16
2016-07-29T05:02:16.239Z,16.2
2016-07-29T05:03:14.661Z,16.16
2016-07-29T05:04:16.068Z,16.21
2016-07-29T05:05:16.240Z,16.28
2016-07-29T05:06:16.663Z,16.46
2016-07-29T05:07:15.147Z,16.43
2016-07-29T05:08:16.500Z,16.53
2016-07-29T05:09:15.825Z,16.56
2016-07-29T05:10:15.878Z,16.47
2016-07-29T05:11:15.322Z,16.51
2016-07-29T05:12:16.189Z,16.51
2016-07-29T05:13:16.200Z,16.5
2016-07-29T05:14:15.513Z,16.42
2016-07-29T05:15:15.997Z,16.43
2016-07-29T05:16:16.923Z,16.5
2016-07-29T05:17:15.657Z,16.66
2016-07-29T05:19:15.523Z,16.64
2016-07-29T05:20:15.668Z,16.66
2016-07-29T05:21:17.073Z,16.72
2016-07-29T05:22:15.582Z,16.72
2016-07-29T05:23:15.923Z,16.68
2016-07-29T05:24:15.940Z,16.78
2016-07-29T05:25:15.941Z,16.75
2016-07-29T05:26:18.022Z,16.83
2016-07-29T05:27:15.980Z,16.72
2016-07-29T05:28:15.810Z,16.83
2016-07-29T05:29:18.322Z,16.75
2016-07-29T05:30:17.083Z,16.78
2016-07-29T05:31:16.089Z,16.71
2016-07-29T05:32:15.835Z,16.76
2016-07-29T05:34:17.452Z,16.71
2016-07-29T05:35:16.873Z,16.87
2016-07-29T05:36:17.872Z,16.76
2016-07-29T05:37:16.427Z,16.75
2016-07-29T05:38:17.214Z,16.81
2016-07-29T05:39:15.945Z,16.84
2016-07-29T05:40:16.467Z,16.78
2016-07-29T05:41:15.528Z,16.84
2016-07-29T05:42:16.710Z,16.89
2016-07-29T05:43:16.201Z,16.93
2016-07-29T05:44:16.367Z,16.93
2016-07-29T05:45:17.848Z,16.83
2016-07-29T05:46:17.757Z,16.9
2016-07-29T05:47:18.225Z,16.83
2016-07-29T05:49:18.608Z,16.78
2016-07-29T05:50:20.376Z,16.79
2016-07-29T05:51:17.682Z,16.83
2016-07-29T05:52:18.180Z,16.9
2016-07-29T05:53:18.777Z,16.78
2016-07-29T05:54:19.324Z,16.71
2016-07-29T05:55:20.292Z,16.69
2016-07-29T05:56:16.883Z,16.78
2016-07-29T05:57:18.064Z,16.86
2016-07-29T05:58:18.061Z,16.84
2016-07-29T05:59:18.349Z,16.91
2016-07-29T06:00:18.635Z,16.91
2016-07-29T06:01:18.033Z,16.79
2016-07-29T06:02:17.937Z,16.9
2016-07-29T06:03:17.809Z,16.93
2016-07-29T06:04:17.605Z,16.94
2016-07-29T06:05:18.194Z,17.02
2016-07-29T06:06:17.722Z,17.04
2016-07-29T06:07:21.070Z,17.08
2016-07-29T06:08:16.752Z,17.11
2016-07-29T06:09:16.894Z,17.12
2016-07-29T06:10:18.108Z,17.12
2016-07-29T06:11:17.824Z,17.14
2016-07-29T06:12:16.525Z,17.01
2016-07-29T06:13:18.490Z,16.86
2016-07-29T06:14:17.380Z,16.84
2016-07-29T06:15:18.882Z,16.81
2016-07-29T06:16:17.630Z,16.78
2016-07-29T06:17:17.806Z,16.68
2016-07-29T06:18:16.982Z,16.68
2016-07-29T06:19:17.330Z,16.84
2016-07-29T06:20:17.163Z,16.69
2016-07-29T06:21:18.950Z,16.69
2016-07-29T06:22:17.996Z,16.72
2016-07-29T06:23:17.526Z,16.71
2016-07-29T06:24:18.178Z,16.68
2016-07-29T06:25:16.948Z,16.79
2016-07-29T06:26:18.239Z,16.87
2016-07-29T06:27:17.859Z,16.89
2016-07-29T06:28:18.428Z,16.96
2016-07-29T06:29:17.984Z,17.09
2016-07-29T06:30:16.962Z,17.33
2016-07-29T06:31:17.270Z,17.31
2016-07-29T06:32:18.185Z,17.09
2016-07-29T06:33:16.797Z,17.14
2016-07-29T06:34:18.961Z,17.3
2016-07-29T06:35:18.007Z,17.2
2016-07-29T06:36:17.323Z,17.26
2016-07-29T06:37:18.345Z,17.31
2016-07-29T06:38:17.369Z,17.39
2016-07-29T06:39:17.523Z,17.48
2016-07-29T06:40:17.232Z,17.64
2016-07-29T06:41:17.326Z,17.68
2016-07-29T06:42:18.185Z,17.7
2016-07-29T06:43:18.014Z,17.71
2016-07-29T06:44:17.300Z,17.72
2016-07-29T06:45:17.216Z,17.89
2016-07-29T06:46:17.724Z,17.71
2016-07-29T06:47:17.877Z,17.8
2016-07-29T06:48:17.241Z,17.87
2016-07-29T06:50:18.406Z,17.92
2016-07-29T06:51:17.721Z,17.82
2016-07-29T06:52:18.638Z,17.98
2016-07-29T06:53:18.197Z,17.86
2016-07-29T06:54:18.217Z,17.94
2016-07-29T06:55:18.217Z,17.95
2016-07-29T06:56:18.133Z,18.01
2016-07-29T06:57:17.850Z,17.86
2016-07-29T06:58:18.823Z,17.83
2016-07-29T06:59:18.268Z,18.04
2016-07-29T07:00:17.687Z,17.98
2016-07-29T07:01:18.135Z,17.94
2016-07-29T07:02:19.063Z,17.85
2016-07-29T07:03:18.137Z,18.03
2016-07-29T07:04:19.971Z,18.01
2016-07-29T07:05:17.962Z,18
2016-07-29T07:06:19.341Z,17.87
2016-07-29T07:07:19.125Z,17.92
2016-07-29T07:08:19.030Z,17.94
2016-07-29T07:09:18.538Z,17.8
2016-07-29T07:10:19.411Z,18.03
2016-07-29T07:11:19.644Z,17.87
2016-07-29T07:12:18.621Z,17.82
2016-07-29T07:13:19.060Z,18.01
2016-07-29T07:14:19.415Z,17.97
2016-07-29T07:15:19.802Z,18.13
2016-07-29T07:16:19.214Z,18.13
2016-07-29T07:17:20.173Z,18.2
2016-07-29T07:18:19.404Z,18.23
2016-07-29T07:19:18.733Z,18.45
2016-07-29T07:20:18.702Z,18.55
2016-07-29T07:21:20.350Z,18.75
2016-07-29T07:22:18.393Z,18.7
2016-07-29T07:23:19.078Z,18.68
2016-07-29T07:24:18.310Z,18.52
2016-07-29T07:25:18.192Z,18.58
2016-07-29T07:26:18.510Z,18.58
2016-07-29T07:27:19.364Z,18.62
2016-07-29T07:28:19.072Z,18.59
2016-07-29T07:29:18.486Z,18.65
2016-07-29T07:30:18.999Z,18.66
2016-07-29T07:31:18.883Z,18.77
2016-07-29T07:32:19.696Z,18.83
2016-07-29T07:33:19.581Z,18.96
2016-07-29T07:34:19.450Z,19.09
2016-07-29T07:35:20.438Z,18.99
2016-07-29T07:36:19.007Z,19.15
2016-07-29T07:37:18.812Z,19.11
2016-07-29T07:38:18.697Z,19.24
2016-07-29T07:39:20.278Z,19.37
2016-07-29T07:40:20.212Z,19.36
2016-07-29T07:41:21.969Z,19.62
2016-07-29T07:42:18.791Z,19.82
2016-07-29T07:43:19.868Z,19.81
2016-07-29T07:44:21.357Z,19.89
2016-07-29T07:45:19.338Z,19.95
2016-07-29T07:46:19.351Z,19.85
2016-07-29T07:47:19.261Z,19.58
2016-07-29T07:48:21.685Z,19.58
2016-07-29T07:49:18.821Z,19.89
2016-07-29T07:50:20.290Z,19.58
2016-07-29T07:51:20.014Z,19.88
2016-07-29T07:52:20.595Z,19.62
2016-07-29T07:53:20.067Z,19.59
2016-07-29T07:54:20.248Z,19.62
2016-07-29T07:55:18.789Z,19.71
2016-07-29T07:56:20.203Z,19.81
2016-07-29T07:57:19.851Z,19.92
2016-07-29T07:58:19.940Z,19.95
2016-07-29T07:59:19.608Z,20.07
2016-07-29T08:00:19.648Z,20.44
2016-07-29T08:01:20.708Z,20.36
2016-07-29T08:02:20.564Z,20.21
2016-07-29T08:03:20.678Z,20.48
2016-07-29T08:04:20.734Z,20.43
2016-07-29T08:05:21.140Z,20.56
2016-07-29T08:06:20.656Z,20.75
2016-07-29T08:07:22.191Z,20.97
2016-07-29T08:08:20.226Z,21.25
2016-07-29T08:09:20.683Z,21.15
2016-07-29T08:10:20.213Z,21.37
2016-07-29T08:11:20.727Z,21.43
2016-07-29T08:12:21.086Z,21.45
2016-07-29T08:13:20.383Z,21.35
2016-07-29T08:14:20.551Z,21.15
2016-07-29T08:15:19.875Z,21.61
2016-07-29T08:16:20.048Z,21.43
2016-07-29T08:17:21.168Z,21.73
2016-07-29T08:18:21.145Z,22.76
2016-07-29T08:19:21.152Z,22.68
2016-07-29T08:20:21.740Z,22.54
2016-07-29T08:21:19.980Z,23.27
2016-07-29T08:22:22.319Z,22.43
2016-07-29T08:23:20.945Z,22.72
2016-07-29T08:24:21.457Z,22.73
2016-07-29T08:25:21.588Z,22.7
2016-07-29T08:26:20.929Z,22.35
2016-07-29T08:27:20.329Z,22.04
2016-07-29T08:28:20.509Z,21.83
2016-07-29T08:29:20.731Z,22.2
2016-07-29T08:30:20.462Z,22.02
2016-07-29T08:31:20.956Z,21.6
2016-07-29T08:32:21.623Z,21.64
2016-07-29T08:33:21.371Z,21.64
2016-07-29T08:34:20.737Z,21.82
2016-07-29T08:35:20.585Z,21.66
2016-07-29T08:36:20.817Z,21.45
2016-07-29T08:37:21.261Z,22.15
2016-07-29T08:38:21.100Z,21.69
2016-07-29T08:39:21.320Z,21.83
2016-07-29T08:40:20.842Z,21.32
2016-07-29T08:41:21.540Z,21.3
2016-07-29T08:42:21.806Z,21.79
2016-07-29T08:43:20.795Z,22.22
2016-07-29T08:44:22.481Z,22.63
2016-07-29T08:45:21.145Z,22.84
2016-07-29T08:46:22.502Z,22.87
2016-07-29T08:47:21.617Z,23.03
2016-07-29T08:48:21.809Z,23.12
2016-07-29T08:49:21.139Z,23.36
2016-07-29T08:50:21.581Z,22.85
2016-07-29T08:51:21.467Z,22.39
2016-07-29T08:52:22.700Z,22.36
2016-07-29T08:53:23.496Z,21.8
2016-07-29T08:54:21.270Z,22.53
2016-07-29T08:55:21.579Z,22.45
2016-07-29T08:56:22.811Z,22.7
2016-07-29T08:57:21.797Z,21.79
2016-07-29T08:58:22.893Z,21.98
2016-07-29T08:59:22.887Z,22.11
2016-07-29T09:00:21.406Z,21.7
2016-07-29T09:01:22.808Z,21.37
2016-07-29T09:02:22.270Z,21.5
2016-07-29T09:03:23.106Z,21.96
2016-07-29T09:04:22.657Z,21.8
2016-07-29T09:05:22.923Z,21.88
2016-07-29T09:06:22.976Z,22.39
2016-07-29T09:07:22.915Z,22.54
2016-07-29T09:08:22.060Z,22.98
2016-07-29T09:09:21.840Z,22.72
2016-07-29T09:10:22.972Z,23
2016-07-29T09:11:21.821Z,22.59
2016-07-29T09:12:22.738Z,22.73
2016-07-29T09:13:21.744Z,23.73
2016-07-29T09:14:21.879Z,23.23
2016-07-29T09:15:23.951Z,24.57
2016-07-29T09:16:23.471Z,24.45
2016-07-29T09:17:22.831Z,24.73
2016-07-29T09:18:22.363Z,24.86
2016-07-29T09:19:23.294Z,25.14
2016-07-29T09:20:22.688Z,24.88
2016-07-29T09:21:22.799Z,25.53
2016-07-29T09:22:22.879Z,25.6
2016-07-29T09:23:24.268Z,26.53
2016-07-29T09:24:24.339Z,26.37
2016-07-29T09:25:23.477Z,26
2016-07-29T09:26:23.442Z,25.31
2016-07-29T09:27:22.886Z,24.7
2016-07-29T09:28:22.523Z,25.22
2016-07-29T09:29:22.638Z,24.05
2016-07-29T09:30:22.707Z,24.24
2016-07-29T09:31:23.934Z,24.43
2016-07-29T09:32:22.998Z,23.78
2016-07-29T09:33:24.205Z,24.26
2016-07-29T09:34:24.281Z,25.06
2016-07-29T09:35:22.702Z,25.46
2016-07-29T09:36:23.592Z,25.4
2016-07-29T09:37:22.823Z,25.44
2016-07-29T09:38:23.223Z,25.83
2016-07-29T09:39:23.237Z,25.13
2016-07-29T09:40:23.473Z,24.45
2016-07-29T09:41:23.006Z,23.88
2016-07-29T09:42:23.666Z,24.28
2016-07-29T09:43:24.579Z,23.87
2016-07-29T09:44:23.514Z,23.73
2016-07-29T09:45:23.786Z,23.99
2016-07-29T09:46:23.402Z,24.01
2016-07-29T09:47:22.908Z,24.02
2016-07-29T09:48:23.334Z,23.73
2016-07-29T09:49:23.518Z,23.58
2016-07-29T09:50:24.155Z,23.55
2016-07-29T09:51:23.107Z,23.87
2016-07-29T09:52:24.151Z,23.88
2016-07-29T09:53:24.012Z,23.8
2016-07-29T09:54:24.466Z,23.84
2016-07-29T09:55:25.153Z,23.71
2016-07-29T09:56:24.030Z,24.1
2016-07-29T09:57:24.205Z,23.91
2016-07-29T09:58:24.843Z,23.87
2016-07-29T09:59:24.471Z,23.37
2016-07-29T10:00:23.321Z,23.28
2016-07-29T10:01:26.566Z,22.75
2016-07-29T10:02:24.207Z,23.03
2016-07-29T10:03:23.331Z,22.93
2016-07-29T10:04:24.527Z,23.08
2016-07-29T10:05:24.311Z,23
2016-07-29T10:06:24.296Z,23.12
2016-07-29T10:07:24.255Z,23.25
2016-07-29T10:08:23.892Z,22.98
2016-07-29T10:09:24.042Z,23.02
2016-07-29T10:10:23.819Z,23.02
2016-07-29T10:11:23.359Z,23.96
2016-07-29T10:12:24.622Z,24.26
2016-07-29T10:13:25.006Z,23.41
2016-07-29T10:14:24.886Z,24.33
2016-07-29T10:15:23.483Z,23.88
2016-07-29T10:16:23.819Z,24.74
2016-07-29T10:17:24.248Z,25.26
2016-07-29T10:18:25.039Z,25.25
2016-07-29T10:19:25.031Z,24.6
2016-07-29T10:20:26.677Z,25.1
2016-07-29T10:21:24.884Z,25.31
2016-07-29T10:22:24.171Z,25.28
2016-07-29T10:23:24.348Z,25.17
2016-07-29T10:24:24.006Z,25.29
2016-07-29T10:25:24.858Z,24.58
2016-07-29T10:26:24.539Z,23.81
2016-07-29T10:27:25.255Z,24.28
2016-07-29T10:28:26.247Z,24.77
2016-07-29T10:29:24.286Z,25.13
2016-07-29T10:30:24.184Z,25.1
2016-07-29T10:31:24.546Z,24.88
2016-07-29T10:32:25.316Z,25.17
2016-07-29T10:33:24.538Z,25.17
2016-07-29T10:34:24.860Z,25.46
2016-07-29T10:35:25.403Z,25.32
2016-07-29T10:36:25.186Z,24.84
2016-07-29T10:37:24.766Z,24.2
2016-07-29T10:38:26.393Z,24.45
2016-07-29T10:39:25.088Z,24.43
2016-07-29T10:40:25.487Z,24.39
2016-07-29T10:41:24.870Z,24.23
2016-07-29T10:42:25.992Z,24.05
2016-07-29T10:43:24.893Z,24.06
2016-07-29T10:44:26.846Z,23.4
2016-07-29T10:45:24.773Z,24.06
2016-07-29T10:46:24.788Z,24.06
2016-07-29T10:47:24.895Z,23.48
2016-07-29T10:48:25.490Z,23.02
2016-07-29T10:49:25.207Z,23.25
2016-07-29T10:50:26.609Z,23.18
2016-07-29T10:51:25.670Z,22.8
2016-07-29T10:52:25.041Z,23.02
2016-07-29T10:53:25.046Z,23.03
2016-07-29T10:54:25.697Z,22.98
2016-07-29T10:55:25.403Z,22.57
2016-07-29T10:56:26.403Z,22.44
2016-07-29T10:57:26.395Z,22.5
2016-07-29T10:58:26.075Z,22.59
2016-07-29T10:59:25.408Z,22.59
2016-07-29T11:00:26.756Z,22.76
2016-07-29T11:01:25.262Z,22.6
2016-07-29T11:02:25.761Z,22.44
2016-07-29T11:03:25.561Z,22.23
2016-07-29T11:05:25.985Z,22.39
2016-07-29T11:06:26.869Z,22.26
2016-07-29T11:07:26.501Z,22.18
2016-07-29T11:08:25.717Z,22.39
2016-07-29T11:09:27.885Z,22.32
2016-07-29T11:10:26.716Z,22.11
2016-07-29T11:11:26.448Z,22.29
2016-07-29T11:12:26.522Z,21.8
2016-07-29T11:13:27.563Z,21.58
2016-07-29T11:14:26.191Z,21.51
2016-07-29T11:15:26.622Z,21.67
2016-07-29T11:16:26.106Z,21.58
2016-07-29T11:17:25.862Z,21.64
2016-07-29T11:18:25.762Z,21.36
2016-07-29T11:20:27.789Z,21.48
2016-07-29T11:21:26.186Z,21.66
2016-07-29T11:22:26.564Z,21.57
2016-07-29T11:23:25.817Z,21.64
2016-07-29T11:24:28.199Z,22.11
2016-07-29T11:25:26.193Z,21.95
2016-07-29T11:26:27.329Z,22.2
2016-07-29T11:27:26.825Z,21.96
2016-07-29T11:28:26.457Z,22
2016-07-29T11:29:26.060Z,22.26
2016-07-29T11:30:27.086Z,22.22
2016-07-29T11:31:26.374Z,22.13
2016-07-29T11:32:27.980Z,22.8
2016-07-29T11:33:27.114Z,22.75
2016-07-29T11:35:27.051Z,23.31
2016-07-29T11:36:27.451Z,23.56
2016-07-29T11:37:26.758Z,23.8
2016-07-29T11:38:28.568Z,23.15
2016-07-29T11:39:28.323Z,23.31
2016-07-29T11:40:27.412Z,23.02
2016-07-29T11:41:27.438Z,23.43
2016-07-29T11:42:26.967Z,23.91
2016-07-29T11:43:27.925Z,23.96
2016-07-29T11:44:27.277Z,24.05
2016-07-29T11:45:26.396Z,24.01
2016-07-29T11:46:27.364Z,24.11
2016-07-29T11:47:26.814Z,23.05
2016-07-29T11:48:28.717Z,23.5
2016-07-29T11:50:27.477Z,24.43
2016-07-29T11:51:26.864Z,23.91
2016-07-29T11:52:27.546Z,23.32
2016-07-29T11:53:28.255Z,23.23
2016-07-29T11:54:28.429Z,23.51
2016-07-29T11:55:27.064Z,23.39
2016-07-29T11:56:27.675Z,23.69
2016-07-29T11:57:27.665Z,23.25
2016-07-29T11:58:27.839Z,23.58
2016-07-29T11:59:28.345Z,24.06
2016-07-29T12:00:29.325Z,24.26
2016-07-29T12:01:27.933Z,23.61
2016-07-29T12:02:28.182Z,24.3
2016-07-29T12:03:28.053Z,24.53
2016-07-29T12:05:28.248Z,24.47
2016-07-29T12:06:28.770Z,24.47
2016-07-29T12:07:28.827Z,24.05
2016-07-29T12:08:27.555Z,24.4
2016-07-29T12:09:28.200Z,24.33
2016-07-29T12:10:28.915Z,24.65
2016-07-29T12:11:28.158Z,24.86
2016-07-29T12:12:27.915Z,24.47
2016-07-29T12:13:28.712Z,24.54
2016-07-29T12:14:28.729Z,24.54
2016-07-29T12:15:29.269Z,25.33
2016-07-29T12:16:28.854Z,25.58
2016-07-29T12:17:29.364Z,26.05
2016-07-29T12:18:28.423Z,26.06
2016-07-29T12:20:28.231Z,26
2016-07-29T12:21:28.804Z,25.93
2016-07-29T12:22:27.992Z,25.58
2016-07-29T12:23:28.359Z,25.72
2016-07-29T12:24:27.933Z,24.89
2016-07-29T12:25:29.007Z,24.98
2016-07-29T12:26:29.785Z,24.73
2016-07-29T12:27:29.730Z,25.26
2016-07-29T12:28:28.353Z,25.73
2016-07-29T12:29:28.367Z,26.21
2016-07-29T12:30:29.950Z,25.96
2016-07-29T12:31:28.869Z,25.04
2016-07-29T12:32:28.664Z,25.62
2016-07-29T12:33:29.338Z,25.83
2016-07-29T12:35:29.797Z,26.44
2016-07-29T12:36:30.606Z,25.85
2016-07-29T12:37:28.801Z,25.43
2016-07-29T12:38:30.598Z,25.01
2016-07-29T12:39:29.031Z,25.95
2016-07-29T12:40:29.633Z,25.6
2016-07-29T12:41:29.930Z,25.8
2016-07-29T12:42:28.707Z,25.87
2016-07-29T12:43:29.620Z,26.31
2016-07-29T12:44:29.753Z,27.08
2016-07-29T12:45:29.135Z,26.51
2016-07-29T12:46:28.942Z,26.26
2016-07-29T12:47:29.883Z,26.37
2016-07-29T12:48:30.285Z,25.59
2016-07-29T12:50:29.113Z,24.91
2016-07-29T12:51:29.902Z,25.85
2016-07-29T12:52:30.516Z,25.95
2016-07-29T12:53:30.039Z,25.14
2016-07-29T12:54:29.408Z,24.6
2016-07-29T12:55:30.829Z,24.88
2016-07-29T12:56:30.062Z,24.47
2016-07-29T12:57:29.242Z,24.54
2016-07-29T12:58:29.412Z,24.74
2016-07-29T12:59:29.947Z,24.38
2016-07-29T13:00:29.366Z,24.2
2016-07-29T13:01:29.779Z,24.06
2016-07-29T13:02:30.439Z,24.21
2016-07-29T13:03:30.368Z,24.03
2016-07-29T13:05:30.690Z,23.84
2016-07-29T13:06:29.184Z,24.03
2016-07-29T13:07:29.954Z,23.58
2016-07-29T13:08:30.269Z,23.46
2016-07-29T13:09:30.992Z,23.47